sensor_id;sensor_type;location;lat;lon;timestamp;temperature;humidity
38428;DHT22;24211;49.980;19.776;2022-12-18T00:01:32;2.00;99.90
38428;DHT22;24211;49.980;19.776;2022-12-18T00:04:04;2.10;99.90
38428;DHT22;24211;49.980;19.776;2022-12-18T00:06:34;2.10;99.90
38428;DHT22;24211;49.980;19.776;2022-12-18T00:09:03;2.00;99.90
38428;DHT22;24211;49.980;19.776;2022-12-18T00:11:31;2.00;99.90
38428;DHT22;24211;49.980;19.776;2022-12-18T00:13:59;2.00;99.90
38428;DHT22;24211;49.980;19.776;2022-12-18T00:16:28;2.00;99.90
38428;DHT22;24211;49.980;19.776;2022-12-18T00:18:57;2.00;99.90
38428;DHT22;24211;49.980;19.776;2022-12-18T00:21:25;2.00;99.90
38428;DHT22;24211;49.980;19.776;2022-12-18T00:23:54;2.10;99.90
38428;DHT22;24211;49.980;19.776;2022-12-18T00:26:27;2.10;99.90
38428;DHT22;24211;49.980;19.776;2022-12-18T00:29:02;2.10;99.90
38428;DHT22;24211;49.980;19.776;2022-12-18T00:31:31;2.00;99.90
38428;DHT22;24211;49.980;19.776;2022-12-18T00:34:01;2.10;99.90
38428;DHT22;24211;49.980;19.776;2022-12-18T00:36:32;2.10;99.90
38428;DHT22;24211;49.980;19.776;2022-12-18T00:39:04;2.10;99.90
38428;DHT22;24211;49.980;19.776;2022-12-18T00:41:32;2.10;99.90
38428;DHT22;24211;49.980;19.776;2022-12-18T00:44:19;2.10;99.90
38428;DHT22;24211;49.980;19.776;2022-12-18T00:46:47;2.10;99.90
38428;DHT22;24211;49.980;19.776;2022-12-18T00:49:17;2.10;99.90
38428;DHT22;24211;49.980;19.776;2022-12-18T00:51:46;2.10;99.90
38428;DHT22;24211;49.980;19.776;2022-12-18T00:54:15;2.00;99.90
38428;DHT22;24211;49.980;19.776;2022-12-18T00:56:43;2.10;99.90
38428;DHT22;24211;49.980;19.776;2022-12-18T00:59:17;2.00;99.90
38428;DHT22;24211;49.980;19.776;2022-12-18T01:01:45;2.10;99.90
38428;DHT22;24211;49.980;19.776;2022-12-18T01:04:14;2.10;99.90
38428;DHT22;24211;49.980;19.776;2022-12-18T01:06:44;2.10;99.90
38428;DHT22;24211;49.980;19.776;2022-12-18T01:09:12;2.10;99.90
38428;DHT22;24211;49.980;19.776;2022-12-18T01:11:39;2.10;99.90
38428;DHT22;24211;49.980;19.776;2022-12-18T01:14:07;2.20;99.90
38428;DHT22;24211;49.980;19.776;2022-12-18T01:16:36;2.20;99.90
38428;DHT22;24211;49.980;19.776;2022-12-18T01:19:04;2.20;99.90
38428;DHT22;24211;49.980;19.776;2022-12-18T01:21:32;2.20;99.90
38428;DHT22;24211;49.980;19.776;2022-12-18T01:24:04;2.10;99.90
38428;DHT22;24211;49.980;19.776;2022-12-18T01:26:33;2.10;99.90
38428;DHT22;24211;49.980;19.776;2022-12-18T01:29:00;2.10;99.90
38428;DHT22;24211;49.980;19.776;2022-12-18T01:31:30;2.20;99.90
38428;DHT22;24211;49.980;19.776;2022-12-18T01:34:03;2.20;99.90
38428;DHT22;24211;49.980;19.776;2022-12-18T01:36:33;2.20;99.90
38428;DHT22;24211;49.980;19.776;2022-12-18T01:39:05;2.20;99.90
38428;DHT22;24211;49.980;19.776;2022-12-18T01:41:35;2.20;99.90
38428;DHT22;24211;49.980;19.776;2022-12-18T01:47:46;2.20;99.90
38428;DHT22;24211;49.980;19.776;2022-12-18T01:50:23;2.20;99.90
38428;DHT22;24211;49.980;19.776;2022-12-18T01:53:15;2.20;99.90
38428;DHT22;24211;49.980;19.776;2022-12-18T01:55:51;2.20;99.90
38428;DHT22;24211;49.980;19.776;2022-12-18T01:58:30;2.30;99.90
38428;DHT22;24211;49.980;19.776;2022-12-18T02:01:05;2.30;99.90
38428;DHT22;24211;49.980;19.776;2022-12-18T02:03:32;2.30;99.90
38428;DHT22;24211;49.980;19.776;2022-12-18T02:12:05;2.30;99.90
38428;DHT22;24211;49.980;19.776;2022-12-18T02:15:00;2.30;99.90
38428;DHT22;24211;49.980;19.776;2022-12-18T02:17:57;2.30;99.90
38428;DHT22;24211;49.980;19.776;2022-12-18T02:20:36;2.30;99.90
38428;DHT22;24211;49.980;19.776;2022-12-18T02:23:28;2.30;99.90
38428;DHT22;24211;49.980;19.776;2022-12-18T02:26:26;2.30;99.90
38428;DHT22;24211;49.980;19.776;2022-12-18T02:29:15;2.30;99.90
38428;DHT22;24211;49.980;19.776;2022-12-18T02:31:56;2.30;99.90
38428;DHT22;24211;49.980;19.776;2022-12-18T02:34:30;2.30;99.90
38428;DHT22;24211;49.980;19.776;2022-12-18T02:37:02;2.30;99.90
38428;DHT22;24211;49.980;19.776;2022-12-18T02:39:36;2.40;99.90
38428;DHT22;24211;49.980;19.776;2022-12-18T02:42:06;2.40;99.90
38428;DHT22;24211;49.980;19.776;2022-12-18T02:44:48;2.40;99.90
38428;DHT22;24211;49.980;19.776;2022-12-18T02:47:24;2.40;99.90
38428;DHT22;24211;49.980;19.776;2022-12-18T02:58:59;2.40;99.90
38428;DHT22;24211;49.980;19.776;2022-12-18T03:07:51;2.40;99.90
38428;DHT22;24211;49.980;19.776;2022-12-18T03:10:28;2.50;99.90
38428;DHT22;24211;49.980;19.776;2022-12-18T03:13:07;2.50;99.90
38428;DHT22;24211;49.980;19.776;2022-12-18T03:15:46;2.50;99.90
38428;DHT22;24211;49.980;19.776;2022-12-18T03:18:31;2.40;99.90
38428;DHT22;24211;49.980;19.776;2022-12-18T03:21:06;2.50;99.90
38428;DHT22;24211;49.980;19.776;2022-12-18T03:23:42;2.50;99.90
38428;DHT22;24211;49.980;19.776;2022-12-18T03:26:16;2.50;99.90
38428;DHT22;24211;49.980;19.776;2022-12-18T03:29:05;2.50;99.90
38428;DHT22;24211;49.980;19.776;2022-12-18T03:31:40;2.50;99.90
38428;DHT22;24211;49.980;19.776;2022-12-18T03:34:14;2.50;99.90
38428;DHT22;24211;49.980;19.776;2022-12-18T03:36:47;2.50;99.90
38428;DHT22;24211;49.980;19.776;2022-12-18T03:39:15;2.60;99.90
38428;DHT22;24211;49.980;19.776;2022-12-18T03:42:00;2.60;99.90
38428;DHT22;24211;49.980;19.776;2022-12-18T03:50:59;2.60;99.90
38428;DHT22;24211;49.980;19.776;2022-12-18T03:53:47;2.60;99.90
38428;DHT22;24211;49.980;19.776;2022-12-18T03:56:28;2.60;99.90
38428;DHT22;24211;49.980;19.776;2022-12-18T03:58:59;2.60;99.90
38428;DHT22;24211;49.980;19.776;2022-12-18T04:01:32;2.60;99.90
38428;DHT22;24211;49.980;19.776;2022-12-18T04:04:03;2.60;99.90
38428;DHT22;24211;49.980;19.776;2022-12-18T04:06:36;2.50;99.90
38428;DHT22;24211;49.980;19.776;2022-12-18T04:09:07;2.50;99.90
38428;DHT22;24211;49.980;19.776;2022-12-18T04:11:41;2.60;99.90
38428;DHT22;24211;49.980;19.776;2022-12-18T04:14:12;2.60;99.90
38428;DHT22;24211;49.980;19.776;2022-12-18T04:16:45;2.60;99.90
38428;DHT22;24211;49.980;19.776;2022-12-18T04:19:15;2.60;99.90
38428;DHT22;24211;49.980;19.776;2022-12-18T04:21:44;2.60;99.90
38428;DHT22;24211;49.980;19.776;2022-12-18T04:24:13;2.60;99.90
38428;DHT22;24211;49.980;19.776;2022-12-18T04:26:49;2.60;99.90
38428;DHT22;24211;49.980;19.776;2022-12-18T04:29:21;2.60;99.90
38428;DHT22;24211;49.980;19.776;2022-12-18T04:31:48;2.60;99.90
38428;DHT22;24211;49.980;19.776;2022-12-18T04:34:16;2.60;99.90
38428;DHT22;24211;49.980;19.776;2022-12-18T04:36:49;2.60;99.90
38428;DHT22;24211;49.980;19.776;2022-12-18T04:39:17;2.60;99.90
38428;DHT22;24211;49.980;19.776;2022-12-18T04:41:45;2.70;99.90
38428;DHT22;24211;49.980;19.776;2022-12-18T04:44:13;2.70;99.90
38428;DHT22;24211;49.980;19.776;2022-12-18T04:46:41;2.70;99.90
38428;DHT22;24211;49.980;19.776;2022-12-18T04:49:08;2.70;99.90
38428;DHT22;24211;49.980;19.776;2022-12-18T04:51:37;2.70;99.90
38428;DHT22;24211;49.980;19.776;2022-12-18T04:54:04;2.70;99.90
38428;DHT22;24211;49.980;19.776;2022-12-18T04:56:32;2.70;99.90
38428;DHT22;24211;49.980;19.776;2022-12-18T04:58:59;2.70;99.90
38428;DHT22;24211;49.980;19.776;2022-12-18T05:01:28;2.70;99.90
38428;DHT22;24211;49.980;19.776;2022-12-18T05:04:02;2.70;99.90
38428;DHT22;24211;49.980;19.776;2022-12-18T05:06:30;2.70;99.90
38428;DHT22;24211;49.980;19.776;2022-12-18T05:08:58;2.70;99.90
38428;DHT22;24211;49.980;19.776;2022-12-18T05:11:25;2.70;99.90
38428;DHT22;24211;49.980;19.776;2022-12-18T05:13:52;2.70;99.90
38428;DHT22;24211;49.980;19.776;2022-12-18T05:16:19;2.70;99.90
38428;DHT22;24211;49.980;19.776;2022-12-18T05:18:46;2.70;99.90
38428;DHT22;24211;49.980;19.776;2022-12-18T05:21:14;2.70;99.90
38428;DHT22;24211;49.980;19.776;2022-12-18T05:23:41;2.70;99.90
38428;DHT22;24211;49.980;19.776;2022-12-18T05:26:14;2.70;99.90
38428;DHT22;24211;49.980;19.776;2022-12-18T05:28:44;2.70;99.90
38428;DHT22;24211;49.980;19.776;2022-12-18T05:31:12;2.70;99.90
38428;DHT22;24211;49.980;19.776;2022-12-18T05:33:39;2.70;99.90
38428;DHT22;24211;49.980;19.776;2022-12-18T05:36:08;2.70;99.90
38428;DHT22;24211;49.980;19.776;2022-12-18T05:38:37;2.70;99.90
38428;DHT22;24211;49.980;19.776;2022-12-18T05:41:07;2.70;99.90
38428;DHT22;24211;49.980;19.776;2022-12-18T05:43:36;2.70;99.90
38428;DHT22;24211;49.980;19.776;2022-12-18T05:46:07;2.70;99.90
38428;DHT22;24211;49.980;19.776;2022-12-18T05:48:38;2.70;99.90
38428;DHT22;24211;49.980;19.776;2022-12-18T05:51:08;2.70;99.90
38428;DHT22;24211;49.980;19.776;2022-12-18T05:53:37;2.70;99.90
38428;DHT22;24211;49.980;19.776;2022-12-18T05:56:08;2.70;99.90
38428;DHT22;24211;49.980;19.776;2022-12-18T05:58:37;2.70;99.90
38428;DHT22;24211;49.980;19.776;2022-12-18T06:01:15;2.70;99.90
38428;DHT22;24211;49.980;19.776;2022-12-18T06:03:47;2.80;99.90
38428;DHT22;24211;49.980;19.776;2022-12-18T06:06:17;2.80;99.90
38428;DHT22;24211;49.980;19.776;2022-12-18T06:08:46;2.80;99.90
38428;DHT22;24211;49.980;19.776;2022-12-18T06:11:17;2.80;99.90
38428;DHT22;24211;49.980;19.776;2022-12-18T06:13:53;2.80;99.90
38428;DHT22;24211;49.980;19.776;2022-12-18T06:16:26;2.80;99.90
38428;DHT22;24211;49.980;19.776;2022-12-18T06:18:59;2.80;99.90
38428;DHT22;24211;49.980;19.776;2022-12-18T06:21:28;2.80;99.90
38428;DHT22;24211;49.980;19.776;2022-12-18T06:23:57;2.80;99.90
38428;DHT22;24211;49.980;19.776;2022-12-18T06:26:24;2.80;99.90
38428;DHT22;24211;49.980;19.776;2022-12-18T06:28:54;2.80;99.90
38428;DHT22;24211;49.980;19.776;2022-12-18T06:31:21;2.80;99.90
38428;DHT22;24211;49.980;19.776;2022-12-18T06:33:49;2.80;99.90
38428;DHT22;24211;49.980;19.776;2022-12-18T06:36:16;2.80;99.90
38428;DHT22;24211;49.980;19.776;2022-12-18T06:38:44;2.80;99.90
38428;DHT22;24211;49.980;19.776;2022-12-18T06:41:16;2.80;99.90
38428;DHT22;24211;49.980;19.776;2022-12-18T06:43:45;2.80;99.90
38428;DHT22;24211;49.980;19.776;2022-12-18T06:46:12;2.90;99.90
38428;DHT22;24211;49.980;19.776;2022-12-18T06:48:40;2.90;99.90
38428;DHT22;24211;49.980;19.776;2022-12-18T06:51:07;2.90;99.90
38428;DHT22;24211;49.980;19.776;2022-12-18T06:53:35;2.90;99.90
38428;DHT22;24211;49.980;19.776;2022-12-18T06:56:04;2.90;99.90
38428;DHT22;24211;49.980;19.776;2022-12-18T06:58:37;2.90;99.90
38428;DHT22;24211;49.980;19.776;2022-12-18T07:01:08;2.90;99.90
38428;DHT22;24211;49.980;19.776;2022-12-18T07:03:40;2.90;99.90
38428;DHT22;24211;49.980;19.776;2022-12-18T07:06:18;3.00;99.90
38428;DHT22;24211;49.980;19.776;2022-12-18T07:08:47;2.90;99.90
38428;DHT22;24211;49.980;19.776;2022-12-18T07:11:16;2.90;99.90
38428;DHT22;24211;49.980;19.776;2022-12-18T07:13:45;3.00;99.90
38428;DHT22;24211;49.980;19.776;2022-12-18T07:16:21;3.00;99.90
38428;DHT22;24211;49.980;19.776;2022-12-18T07:18:53;3.00;99.90
38428;DHT22;24211;49.980;19.776;2022-12-18T07:24:46;3.00;99.90
38428;DHT22;24211;49.980;19.776;2022-12-18T07:27:13;3.00;99.90
38428;DHT22;24211;49.980;19.776;2022-12-18T07:29:40;3.00;99.90
38428;DHT22;24211;49.980;19.776;2022-12-18T07:32:08;3.00;99.90
38428;DHT22;24211;49.980;19.776;2022-12-18T07:34:35;3.00;99.90
38428;DHT22;24211;49.980;19.776;2022-12-18T07:37:03;3.00;99.90
38428;DHT22;24211;49.980;19.776;2022-12-18T07:39:30;3.00;99.90
38428;DHT22;24211;49.980;19.776;2022-12-18T07:41:57;3.00;99.90
38428;DHT22;24211;49.980;19.776;2022-12-18T07:44:43;3.00;99.90
38428;DHT22;24211;49.980;19.776;2022-12-18T07:47:10;3.00;99.90
38428;DHT22;24211;49.980;19.776;2022-12-18T07:49:38;3.00;99.90
38428;DHT22;24211;49.980;19.776;2022-12-18T07:52:05;3.00;99.90
38428;DHT22;24211;49.980;19.776;2022-12-18T07:54:32;3.00;99.90
38428;DHT22;24211;49.980;19.776;2022-12-18T07:56:59;3.00;99.90
38428;DHT22;24211;49.980;19.776;2022-12-18T07:59:27;3.00;99.90
38428;DHT22;24211;49.980;19.776;2022-12-18T08:01:54;3.00;99.90
38428;DHT22;24211;49.980;19.776;2022-12-18T08:04:21;3.00;99.90
38428;DHT22;24211;49.980;19.776;2022-12-18T08:06:48;3.00;99.90
38428;DHT22;24211;49.980;19.776;2022-12-18T08:09:15;3.00;99.90
38428;DHT22;24211;49.980;19.776;2022-12-18T08:11:43;3.00;99.90
38428;DHT22;24211;49.980;19.776;2022-12-18T08:14:10;3.00;99.90
38428;DHT22;24211;49.980;19.776;2022-12-18T08:16:37;3.00;99.90
38428;DHT22;24211;49.980;19.776;2022-12-18T08:19:05;3.10;99.90
38428;DHT22;24211;49.980;19.776;2022-12-18T08:21:32;3.00;99.90
38428;DHT22;24211;49.980;19.776;2022-12-18T08:24:00;3.10;99.90
38428;DHT22;24211;49.980;19.776;2022-12-18T08:26:30;3.00;99.90
38428;DHT22;24211;49.980;19.776;2022-12-18T08:33:12;3.10;99.90
38428;DHT22;24211;49.980;19.776;2022-12-18T08:35:39;3.10;99.90
38428;DHT22;24211;49.980;19.776;2022-12-18T08:38:12;3.10;99.90
38428;DHT22;24211;49.980;19.776;2022-12-18T08:40:39;3.00;99.90
38428;DHT22;24211;49.980;19.776;2022-12-18T08:43:09;3.00;99.90
38428;DHT22;24211;49.980;19.776;2022-12-18T09:23:16;3.00;99.90
38428;DHT22;24211;49.980;19.776;2022-12-18T09:25:43;3.10;99.90
38428;DHT22;24211;49.980;19.776;2022-12-18T09:28:16;3.10;99.90
38428;DHT22;24211;49.980;19.776;2022-12-18T09:30:48;3.00;99.90
38428;DHT22;24211;49.980;19.776;2022-12-18T09:33:16;3.10;99.90
38428;DHT22;24211;49.980;19.776;2022-12-18T09:35:47;3.10;99.90
38428;DHT22;24211;49.980;19.776;2022-12-18T10:28:19;3.00;99.90
38428;DHT22;24211;49.980;19.776;2022-12-18T10:30:47;3.00;99.90
38428;DHT22;24211;49.980;19.776;2022-12-18T10:33:21;3.10;99.90
38428;DHT22;24211;49.980;19.776;2022-12-18T10:57:32;3.10;99.90
38428;DHT22;24211;49.980;19.776;2022-12-18T11:00:37;3.10;99.90
38428;DHT22;24211;49.980;19.776;2022-12-18T11:03:32;3.10;99.90
38428;DHT22;24211;49.980;19.776;2022-12-18T11:06:17;3.10;99.90
38428;DHT22;24211;49.980;19.776;2022-12-18T11:09:28;3.10;99.90
38428;DHT22;24211;49.980;19.776;2022-12-18T11:12:04;3.10;99.90
38428;DHT22;24211;49.980;19.776;2022-12-18T11:14:51;3.10;99.90
38428;DHT22;24211;49.980;19.776;2022-12-18T11:17:35;3.10;99.90
38428;DHT22;24211;49.980;19.776;2022-12-18T11:20:05;3.10;99.90
38428;DHT22;24211;49.980;19.776;2022-12-18T11:23:01;3.10;99.90
38428;DHT22;24211;49.980;19.776;2022-12-18T11:25:31;3.10;99.90
38428;DHT22;24211;49.980;19.776;2022-12-18T11:28:05;3.20;99.90
38428;DHT22;24211;49.980;19.776;2022-12-18T11:31:23;3.20;99.90
38428;DHT22;24211;49.980;19.776;2022-12-18T11:36:58;3.20;99.90
38428;DHT22;24211;49.980;19.776;2022-12-18T11:39:40;3.10;99.90
38428;DHT22;24211;49.980;19.776;2022-12-18T11:42:35;3.20;99.90
38428;DHT22;24211;49.980;19.776;2022-12-18T11:48:27;3.20;99.90
38428;DHT22;24211;49.980;19.776;2022-12-18T11:50:59;3.20;99.90
38428;DHT22;24211;49.980;19.776;2022-12-18T11:53:30;3.20;99.90
38428;DHT22;24211;49.980;19.776;2022-12-18T11:59:09;3.20;99.90
38428;DHT22;24211;49.980;19.776;2022-12-18T12:18:43;3.20;99.90
38428;DHT22;24211;49.980;19.776;2022-12-18T12:25:50;3.30;99.90
38428;DHT22;24211;49.980;19.776;2022-12-18T12:38:55;3.20;99.90
38428;DHT22;24211;49.980;19.776;2022-12-18T12:41:31;3.30;99.90
38428;DHT22;24211;49.980;19.776;2022-12-18T12:44:32;3.30;99.90
38428;DHT22;24211;49.980;19.776;2022-12-18T12:47:17;3.30;99.90
38428;DHT22;24211;49.980;19.776;2022-12-18T12:49:49;3.20;99.90
38428;DHT22;24211;49.980;19.776;2022-12-18T12:52:28;3.20;99.90
38428;DHT22;24211;49.980;19.776;2022-12-18T13:01:05;3.30;99.90
38428;DHT22;24211;49.980;19.776;2022-12-18T13:04:03;3.30;99.90
38428;DHT22;24211;49.980;19.776;2022-12-18T13:07:05;3.30;99.90
38428;DHT22;24211;49.980;19.776;2022-12-18T13:09:33;3.30;99.90
38428;DHT22;24211;49.980;19.776;2022-12-18T13:12:04;3.20;99.90
38428;DHT22;24211;49.980;19.776;2022-12-18T13:15:33;3.30;99.90
38428;DHT22;24211;49.980;19.776;2022-12-18T13:20:44;3.30;99.90
38428;DHT22;24211;49.980;19.776;2022-12-18T13:23:34;3.30;99.90
38428;DHT22;24211;49.980;19.776;2022-12-18T13:34:25;3.30;99.90
38428;DHT22;24211;49.980;19.776;2022-12-18T13:40:00;3.30;99.90
38428;DHT22;24211;49.980;19.776;2022-12-18T13:42:38;3.30;99.90
38428;DHT22;24211;49.980;19.776;2022-12-18T13:45:43;3.30;99.90
38428;DHT22;24211;49.980;19.776;2022-12-18T13:48:22;3.30;99.90
38428;DHT22;24211;49.980;19.776;2022-12-18T13:50:57;3.30;99.90
38428;DHT22;24211;49.980;19.776;2022-12-18T13:54:22;3.30;99.90
38428;DHT22;24211;49.980;19.776;2022-12-18T13:56:47;3.30;99.90
38428;DHT22;24211;49.980;19.776;2022-12-18T13:59:33;3.30;99.90
38428;DHT22;24211;49.980;19.776;2022-12-18T14:02:15;3.30;99.90
38428;DHT22;24211;49.980;19.776;2022-12-18T14:04:45;3.30;99.90
38428;DHT22;24211;49.980;19.776;2022-12-18T14:09:54;3.30;99.90
38428;DHT22;24211;49.980;19.776;2022-12-18T14:12:50;3.30;99.90
38428;DHT22;24211;49.980;19.776;2022-12-18T14:15:40;3.30;99.90
38428;DHT22;24211;49.980;19.776;2022-12-18T14:18:34;3.30;99.90
38428;DHT22;24211;49.980;19.776;2022-12-18T14:26:47;3.30;99.90
38428;DHT22;24211;49.980;19.776;2022-12-18T14:29:23;3.40;99.90
38428;DHT22;24211;49.980;19.776;2022-12-18T14:34:39;3.30;99.90
38428;DHT22;24211;49.980;19.776;2022-12-18T14:37:10;3.30;99.90
38428;DHT22;24211;49.980;19.776;2022-12-18T14:39:38;3.40;99.90
38428;DHT22;24211;49.980;19.776;2022-12-18T14:42:10;3.30;99.90
38428;DHT22;24211;49.980;19.776;2022-12-18T14:44:38;3.40;99.90
38428;DHT22;24211;49.980;19.776;2022-12-18T14:47:25;3.30;99.90
38428;DHT22;24211;49.980;19.776;2022-12-18T14:49:52;3.40;99.90
38428;DHT22;24211;49.980;19.776;2022-12-18T14:52:27;3.30;99.90
38428;DHT22;24211;49.980;19.776;2022-12-18T14:54:56;3.40;99.90
38428;DHT22;24211;49.980;19.776;2022-12-18T14:57:25;3.40;99.90
38428;DHT22;24211;49.980;19.776;2022-12-18T15:00:07;3.30;99.90
38428;DHT22;24211;49.980;19.776;2022-12-18T15:02:54;3.30;99.90
38428;DHT22;24211;49.980;19.776;2022-12-18T15:05:31;3.40;99.90
38428;DHT22;24211;49.980;19.776;2022-12-18T15:08:00;3.40;99.90
38428;DHT22;24211;49.980;19.776;2022-12-18T15:10:31;3.40;99.90
38428;DHT22;24211;49.980;19.776;2022-12-18T15:18:29;3.30;99.90
38428;DHT22;24211;49.980;19.776;2022-12-18T15:21:08;2.70;99.90
38428;DHT22;24211;49.980;19.776;2022-12-18T15:26:12;2.10;99.90
38428;DHT22;24211;49.980;19.776;2022-12-18T15:28:55;2.20;99.90
38428;DHT22;24211;49.980;19.776;2022-12-18T15:31:33;2.40;99.90
38428;DHT22;24211;49.980;19.776;2022-12-18T15:36:34;2.00;99.90
38428;DHT22;24211;49.980;19.776;2022-12-18T15:39:05;1.40;99.90
38428;DHT22;24211;49.980;19.776;2022-12-18T15:41:34;1.40;99.90
38428;DHT22;24211;49.980;19.776;2022-12-18T15:44:23;1.10;99.90
38428;DHT22;24211;49.980;19.776;2022-12-18T15:46:51;1.30;99.90
38428;DHT22;24211;49.980;19.776;2022-12-18T15:49:18;1.80;99.90
38428;DHT22;24211;49.980;19.776;2022-12-18T15:51:53;1.90;99.90
38428;DHT22;24211;49.980;19.776;2022-12-18T15:54:23;1.80;99.90
38428;DHT22;24211;49.980;19.776;2022-12-18T15:57:10;2.20;99.90
38428;DHT22;24211;49.980;19.776;2022-12-18T15:59:55;2.70;99.90
38428;DHT22;24211;49.980;19.776;2022-12-18T16:02:26;2.90;99.90
38428;DHT22;24211;49.980;19.776;2022-12-18T16:04:56;3.00;99.90
38428;DHT22;24211;49.980;19.776;2022-12-18T16:07:23;3.10;99.90
38428;DHT22;24211;49.980;19.776;2022-12-18T16:09:56;2.90;99.90
38428;DHT22;24211;49.980;19.776;2022-12-18T16:12:26;2.20;99.90
38428;DHT22;24211;49.980;19.776;2022-12-18T16:14:53;2.10;99.90
38428;DHT22;24211;49.980;19.776;2022-12-18T16:17:20;2.70;99.90
38428;DHT22;24211;49.980;19.776;2022-12-18T16:19:47;2.90;99.90
38428;DHT22;24211;49.980;19.776;2022-12-18T16:22:20;3.10;99.90
38428;DHT22;24211;49.980;19.776;2022-12-18T16:24:51;3.20;99.90
38428;DHT22;24211;49.980;19.776;2022-12-18T16:27:20;3.20;99.90
38428;DHT22;24211;49.980;19.776;2022-12-18T16:29:48;3.20;99.90
38428;DHT22;24211;49.980;19.776;2022-12-18T16:32:20;3.30;99.90
38428;DHT22;24211;49.980;19.776;2022-12-18T16:34:49;3.30;99.90
38428;DHT22;24211;49.980;19.776;2022-12-18T16:37:16;3.30;99.90
38428;DHT22;24211;49.980;19.776;2022-12-18T16:39:44;3.30;99.90
38428;DHT22;24211;49.980;19.776;2022-12-18T16:42:16;3.30;99.90
38428;DHT22;24211;49.980;19.776;2022-12-18T16:44:48;3.30;99.90
38428;DHT22;24211;49.980;19.776;2022-12-18T16:47:16;3.30;99.90
38428;DHT22;24211;49.980;19.776;2022-12-18T16:49:44;3.30;99.90
38428;DHT22;24211;49.980;19.776;2022-12-18T16:52:12;3.30;99.90
38428;DHT22;24211;49.980;19.776;2022-12-18T16:54:40;3.30;99.90
38428;DHT22;24211;49.980;19.776;2022-12-18T16:57:10;3.30;99.90
38428;DHT22;24211;49.980;19.776;2022-12-18T16:59:39;3.30;99.90
38428;DHT22;24211;49.980;19.776;2022-12-18T17:02:33;3.30;99.90
38428;DHT22;24211;49.980;19.776;2022-12-18T17:05:02;3.30;99.90
38428;DHT22;24211;49.980;19.776;2022-12-18T17:07:30;3.30;99.90
38428;DHT22;24211;49.980;19.776;2022-12-18T17:10:00;3.30;99.90
38428;DHT22;24211;49.980;19.776;2022-12-18T17:12:27;3.30;99.90
38428;DHT22;24211;49.980;19.776;2022-12-18T17:14:54;3.30;99.90
38428;DHT22;24211;49.980;19.776;2022-12-18T17:17:21;3.30;99.90
38428;DHT22;24211;49.980;19.776;2022-12-18T17:19:50;3.30;99.90
38428;DHT22;24211;49.980;19.776;2022-12-18T17:22:19;3.30;99.90
38428;DHT22;24211;49.980;19.776;2022-12-18T17:24:49;3.30;99.90
38428;DHT22;24211;49.980;19.776;2022-12-18T17:27:16;3.40;99.90
38428;DHT22;24211;49.980;19.776;2022-12-18T17:29:44;3.30;99.90
38428;DHT22;24211;49.980;19.776;2022-12-18T17:32:15;3.30;99.90
38428;DHT22;24211;49.980;19.776;2022-12-18T17:34:43;3.30;99.90
38428;DHT22;24211;49.980;19.776;2022-12-18T17:37:11;3.30;99.90
38428;DHT22;24211;49.980;19.776;2022-12-18T17:39:38;3.30;99.90
38428;DHT22;24211;49.980;19.776;2022-12-18T17:42:05;3.30;99.90
38428;DHT22;24211;49.980;19.776;2022-12-18T17:44:35;3.30;99.90
38428;DHT22;24211;49.980;19.776;2022-12-18T17:47:02;3.40;99.90
38428;DHT22;24211;49.980;19.776;2022-12-18T17:49:31;3.30;99.90
38428;DHT22;24211;49.980;19.776;2022-12-18T17:51:58;3.30;99.90
38428;DHT22;24211;49.980;19.776;2022-12-18T17:54:26;3.30;99.90
38428;DHT22;24211;49.980;19.776;2022-12-18T17:56:53;3.30;99.90
38428;DHT22;24211;49.980;19.776;2022-12-18T17:59:20;3.30;99.90
38428;DHT22;24211;49.980;19.776;2022-12-18T18:01:48;3.40;99.90
38428;DHT22;24211;49.980;19.776;2022-12-18T18:04:15;3.30;99.90
38428;DHT22;24211;49.980;19.776;2022-12-18T18:06:43;3.30;99.90
38428;DHT22;24211;49.980;19.776;2022-12-18T18:09:10;3.30;99.90
38428;DHT22;24211;49.980;19.776;2022-12-18T18:11:45;3.40;99.90
38428;DHT22;24211;49.980;19.776;2022-12-18T18:14:31;3.40;99.90
38428;DHT22;24211;49.980;19.776;2022-12-18T18:16:59;3.30;99.90
38428;DHT22;24211;49.980;19.776;2022-12-18T18:19:32;3.30;99.90
38428;DHT22;24211;49.980;19.776;2022-12-18T18:21:59;3.30;99.90
38428;DHT22;24211;49.980;19.776;2022-12-18T18:24:28;3.30;99.90
38428;DHT22;24211;49.980;19.776;2022-12-18T18:26:55;3.30;99.90
38428;DHT22;24211;49.980;19.776;2022-12-18T18:29:24;3.40;99.90
38428;DHT22;24211;49.980;19.776;2022-12-18T18:31:54;3.40;99.90
38428;DHT22;24211;49.980;19.776;2022-12-18T18:34:26;3.40;99.90
38428;DHT22;24211;49.980;19.776;2022-12-18T18:36:59;3.40;99.90
38428;DHT22;24211;49.980;19.776;2022-12-18T18:39:28;3.40;99.90
38428;DHT22;24211;49.980;19.776;2022-12-18T18:41:55;3.40;99.90
38428;DHT22;24211;49.980;19.776;2022-12-18T18:44:22;3.40;99.90
38428;DHT22;24211;49.980;19.776;2022-12-18T18:46:56;3.40;99.90
38428;DHT22;24211;49.980;19.776;2022-12-18T18:49:25;3.40;99.90
38428;DHT22;24211;49.980;19.776;2022-12-18T18:51:55;3.40;99.90
38428;DHT22;24211;49.980;19.776;2022-12-18T18:54:25;3.40;99.90
38428;DHT22;24211;49.980;19.776;2022-12-18T18:56:52;3.40;99.90
38428;DHT22;24211;49.980;19.776;2022-12-18T18:59:40;3.40;99.90
38428;DHT22;24211;49.980;19.776;2022-12-18T19:02:12;3.40;99.90
38428;DHT22;24211;49.980;19.776;2022-12-18T19:04:41;3.40;99.90
38428;DHT22;24211;49.980;19.776;2022-12-18T19:07:14;3.40;99.90
38428;DHT22;24211;49.980;19.776;2022-12-18T19:09:58;3.40;99.90
38428;DHT22;24211;49.980;19.776;2022-12-18T19:12:32;3.40;99.90
38428;DHT22;24211;49.980;19.776;2022-12-18T19:15:21;3.40;99.90
38428;DHT22;24211;49.980;19.776;2022-12-18T19:17:57;3.40;99.90
38428;DHT22;24211;49.980;19.776;2022-12-18T19:20:25;3.40;99.90
38428;DHT22;24211;49.980;19.776;2022-12-18T19:22:54;3.30;99.90
38428;DHT22;24211;49.980;19.776;2022-12-18T19:25:24;3.40;99.90
38428;DHT22;24211;49.980;19.776;2022-12-18T19:28:07;3.40;99.90
38428;DHT22;24211;49.980;19.776;2022-12-18T19:30:48;3.40;99.90
38428;DHT22;24211;49.980;19.776;2022-12-18T19:33:21;3.40;99.90
38428;DHT22;24211;49.980;19.776;2022-12-18T19:36:14;3.40;99.90
38428;DHT22;24211;49.980;19.776;2022-12-18T19:38:41;3.40;99.90
38428;DHT22;24211;49.980;19.776;2022-12-18T19:41:12;3.40;99.90
38428;DHT22;24211;49.980;19.776;2022-12-18T19:43:40;3.40;99.90
38428;DHT22;24211;49.980;19.776;2022-12-18T19:46:12;3.40;99.90
38428;DHT22;24211;49.980;19.776;2022-12-18T19:48:41;3.40;99.90
38428;DHT22;24211;49.980;19.776;2022-12-18T19:51:16;3.40;99.90
38428;DHT22;24211;49.980;19.776;2022-12-18T19:53:48;3.40;99.90
38428;DHT22;24211;49.980;19.776;2022-12-18T19:56:25;3.40;99.90
38428;DHT22;24211;49.980;19.776;2022-12-18T19:58:54;3.40;99.90